sensor_id;sensor_type;location;lat;lon;timestamp;P1;durP1;ratioP1;P2;durP2;ratioP2
20067;SDS011;10194;50.824;7.134;2023-12-04T00:01:46;83.97;;;76.67;;
20067;SDS011;10194;50.824;7.134;2023-12-04T00:04:13;81.87;;;74.60;;
20067;SDS011;10194;50.824;7.134;2023-12-04T00:06:39;83.00;;;75.67;;
20067;SDS011;10194;50.824;7.134;2023-12-04T00:09:06;84.53;;;76.93;;
20067;SDS011;10194;50.824;7.134;2023-12-04T00:11:32;81.27;;;73.77;;
20067;SDS011;10194;50.824;7.134;2023-12-04T00:13:58;82.13;;;74.77;;
20067;SDS011;10194;50.824;7.134;2023-12-04T00:16:24;84.17;;;76.63;;
20067;SDS011;10194;50.824;7.134;2023-12-04T00:18:50;83.00;;;75.50;;
20067;SDS011;10194;50.824;7.134;2023-12-04T00:21:16;82.07;;;74.67;;
20067;SDS011;10194;50.824;7.134;2023-12-04T00:23:41;82.37;;;74.87;;
20067;SDS011;10194;50.824;7.134;2023-12-04T00:26:07;82.03;;;74.83;;
20067;SDS011;10194;50.824;7.134;2023-12-04T00:28:35;82.37;;;75.00;;
20067;SDS011;10194;50.824;7.134;2023-12-04T00:31:02;84.07;;;76.57;;
20067;SDS011;10194;50.824;7.134;2023-12-04T00:33:28;83.37;;;75.63;;
20067;SDS011;10194;50.824;7.134;2023-12-04T00:35:53;81.37;;;74.03;;
20067;SDS011;10194;50.824;7.134;2023-12-04T00:38:19;82.47;;;75.00;;
20067;SDS011;10194;50.824;7.134;2023-12-04T00:40:45;82.93;;;75.33;;
20067;SDS011;10194;50.824;7.134;2023-12-04T00:43:11;83.47;;;75.77;;
20067;SDS011;10194;50.824;7.134;2023-12-04T00:45:36;83.47;;;75.87;;
20067;SDS011;10194;50.824;7.134;2023-12-04T00:48:02;81.77;;;74.37;;
20067;SDS011;10194;50.824;7.134;2023-12-04T00:50:28;82.63;;;75.13;;
20067;SDS011;10194;50.824;7.134;2023-12-04T00:52:54;82.83;;;75.43;;
20067;SDS011;10194;50.824;7.134;2023-12-04T00:55:20;81.57;;;74.23;;
20067;SDS011;10194;50.824;7.134;2023-12-04T00:57:46;85.23;;;77.53;;
20067;SDS011;10194;50.824;7.134;2023-12-04T01:00:12;81.37;;;74.03;;
20067;SDS011;10194;50.824;7.134;2023-12-04T01:02:38;82.47;;;75.13;;
20067;SDS011;10194;50.824;7.134;2023-12-04T01:05:05;81.43;;;74.10;;
20067;SDS011;10194;50.824;7.134;2023-12-04T01:07:31;82.03;;;74.60;;
20067;SDS011;10194;50.824;7.134;2023-12-04T01:09:57;82.83;;;75.27;;
20067;SDS011;10194;50.824;7.134;2023-12-04T01:12:22;83.13;;;75.57;;
20067;SDS011;10194;50.824;7.134;2023-12-04T01:14:48;83.37;;;75.70;;
20067;SDS011;10194;50.824;7.134;2023-12-04T01:17:14;82.53;;;75.07;;
20067;SDS011;10194;50.824;7.134;2023-12-04T01:19:40;82.40;;;75.00;;
20067;SDS011;10194;50.824;7.134;2023-12-04T01:22:05;83.23;;;75.77;;
20067;SDS011;10194;50.824;7.134;2023-12-04T01:24:31;82.60;;;75.10;;
20067;SDS011;10194;50.824;7.134;2023-12-04T01:26:57;82.93;;;75.43;;
20067;SDS011;10194;50.824;7.134;2023-12-04T01:29:23;83.60;;;76.13;;
20067;SDS011;10194;50.824;7.134;2023-12-04T01:31:49;83.33;;;75.83;;
20067;SDS011;10194;50.824;7.134;2023-12-04T01:34:14;81.70;;;74.30;;
20067;SDS011;10194;50.824;7.134;2023-12-04T01:36:40;80.37;;;73.07;;
20067;SDS011;10194;50.824;7.134;2023-12-04T01:39:06;84.97;;;77.17;;
20067;SDS011;10194;50.824;7.134;2023-12-04T01:41:32;83.30;;;75.80;;
20067;SDS011;10194;50.824;7.134;2023-12-04T01:43:58;79.80;;;72.60;;
20067;SDS011;10194;50.824;7.134;2023-12-04T01:46:24;82.37;;;74.97;;
20067;SDS011;10194;50.824;7.134;2023-12-04T01:48:51;84.43;;;76.93;;
20067;SDS011;10194;50.824;7.134;2023-12-04T01:51:18;84.47;;;76.90;;
20067;SDS011;10194;50.824;7.134;2023-12-04T01:53:44;85.20;;;77.57;;
20067;SDS011;10194;50.824;7.134;2023-12-04T01:56:11;83.27;;;75.73;;
20067;SDS011;10194;50.824;7.134;2023-12-04T01:58:38;84.30;;;76.70;;
20067;SDS011;10194;50.824;7.134;2023-12-04T02:01:04;83.37;;;75.87;;
20067;SDS011;10194;50.824;7.134;2023-12-04T02:03:31;89.43;;;81.23;;
20067;SDS011;10194;50.824;7.134;2023-12-04T02:05:58;84.93;;;77.50;;
20067;SDS011;10194;50.824;7.134;2023-12-04T02:08:27;82.80;;;75.50;;
20067;SDS011;10194;50.824;7.134;2023-12-04T02:10:53;80.93;;;73.53;;
20067;SDS011;10194;50.824;7.134;2023-12-04T02:13:19;82.90;;;75.43;;
20067;SDS011;10194;50.824;7.134;2023-12-04T02:15:45;84.33;;;76.73;;
20067;SDS011;10194;50.824;7.134;2023-12-04T02:18:15;82.20;;;74.73;;
20067;SDS011;10194;50.824;7.134;2023-12-04T02:20:42;81.33;;;73.97;;
20067;SDS011;10194;50.824;7.134;2023-12-04T02:23:08;82.50;;;75.20;;
20067;SDS011;10194;50.824;7.134;2023-12-04T02:25:34;82.73;;;75.40;;
20067;SDS011;10194;50.824;7.134;2023-12-04T02:28:01;81.77;;;74.53;;
20067;SDS011;10194;50.824;7.134;2023-12-04T02:30:30;84.43;;;77.00;;
20067;SDS011;10194;50.824;7.134;2023-12-04T02:33:00;81.87;;;74.53;;
20067;SDS011;10194;50.824;7.134;2023-12-04T02:35:29;82.30;;;75.00;;
20067;SDS011;10194;50.824;7.134;2023-12-04T02:38:02;81.47;;;74.20;;
20067;SDS011;10194;50.824;7.134;2023-12-04T02:40:28;84.03;;;76.60;;
20067;SDS011;10194;50.824;7.134;2023-12-04T02:42:54;84.20;;;76.77;;
20067;SDS011;10194;50.824;7.134;2023-12-04T02:45:20;82.30;;;74.87;;
20067;SDS011;10194;50.824;7.134;2023-12-04T02:47:46;82.83;;;75.30;;
20067;SDS011;10194;50.824;7.134;2023-12-04T02:50:12;82.50;;;75.13;;
20067;SDS011;10194;50.824;7.134;2023-12-04T02:52:37;82.27;;;74.90;;
20067;SDS011;10194;50.824;7.134;2023-12-04T02:55:03;81.33;;;74.13;;
20067;SDS011;10194;50.824;7.134;2023-12-04T02:57:30;83.00;;;75.63;;
20067;SDS011;10194;50.824;7.134;2023-12-04T02:59:55;83.83;;;76.33;;
20067;SDS011;10194;50.824;7.134;2023-12-04T03:02:21;83.57;;;76.10;;
20067;SDS011;10194;50.824;7.134;2023-12-04T03:04:47;85.70;;;78.10;;
20067;SDS011;10194;50.824;7.134;2023-12-04T03:07:13;82.40;;;75.00;;
20067;SDS011;10194;50.824;7.134;2023-12-04T03:09:38;82.23;;;74.93;;
20067;SDS011;10194;50.824;7.134;2023-12-04T03:12:04;83.47;;;75.97;;
20067;SDS011;10194;50.824;7.134;2023-12-04T03:14:30;83.80;;;76.37;;
20067;SDS011;10194;50.824;7.134;2023-12-04T03:16:56;81.63;;;74.40;;
20067;SDS011;10194;50.824;7.134;2023-12-04T03:19:22;80.60;;;73.57;;
20067;SDS011;10194;50.824;7.134;2023-12-04T03:21:47;81.30;;;74.03;;
20067;SDS011;10194;50.824;7.134;2023-12-04T03:24:13;84.47;;;76.97;;
20067;SDS011;10194;50.824;7.134;2023-12-04T03:26:39;84.83;;;77.20;;
20067;SDS011;10194;50.824;7.134;2023-12-04T03:29:05;81.37;;;74.20;;
20067;SDS011;10194;50.824;7.134;2023-12-04T03:31:31;83.53;;;76.03;;
20067;SDS011;10194;50.824;7.134;2023-12-04T03:33:59;82.20;;;74.83;;
20067;SDS011;10194;50.824;7.134;2023-12-04T03:36:24;82.87;;;75.53;;
20067;SDS011;10194;50.824;7.134;2023-12-04T03:38:50;83.57;;;76.07;;
20067;SDS011;10194;50.824;7.134;2023-12-04T03:41:16;84.20;;;76.73;;
20067;SDS011;10194;50.824;7.134;2023-12-04T03:43:42;84.10;;;76.50;;
20067;SDS011;10194;50.824;7.134;2023-12-04T03:46:08;85.23;;;77.63;;
20067;SDS011;10194;50.824;7.134;2023-12-04T03:48:34;84.27;;;76.67;;
20067;SDS011;10194;50.824;7.134;2023-12-04T03:51:01;82.07;;;74.63;;
20067;SDS011;10194;50.824;7.134;2023-12-04T03:53:33;83.90;;;76.40;;
20067;SDS011;10194;50.824;7.134;2023-12-04T03:55:59;82.87;;;75.50;;
20067;SDS011;10194;50.824;7.134;2023-12-04T03:58:25;83.70;;;76.10;;
20067;SDS011;10194;50.824;7.134;2023-12-04T04:00:50;81.33;;;74.07;;
20067;SDS011;10194;50.824;7.134;2023-12-04T04:03:16;83.73;;;76.33;;
20067;SDS011;10194;50.824;7.134;2023-12-04T04:05:42;82.33;;;74.97;;
20067;SDS011;10194;50.824;7.134;2023-12-04T04:08:08;83.70;;;76.13;;
20067;SDS011;10194;50.824;7.134;2023-12-04T04:10:34;83.43;;;76.00;;
20067;SDS011;10194;50.824;7.134;2023-12-04T04:13:00;84.90;;;77.23;;
20067;SDS011;10194;50.824;7.134;2023-12-04T04:15:26;82.57;;;75.13;;
20067;SDS011;10194;50.824;7.134;2023-12-04T04:17:52;84.70;;;77.03;;
20067;SDS011;10194;50.824;7.134;2023-12-04T04:20:17;82.33;;;75.00;;
20067;SDS011;10194;50.824;7.134;2023-12-04T04:22:43;86.50;;;78.93;;
20067;SDS011;10194;50.824;7.134;2023-12-04T04:25:11;83.40;;;75.87;;
20067;SDS011;10194;50.824;7.134;2023-12-04T04:27:37;82.93;;;75.63;;
20067;SDS011;10194;50.824;7.134;2023-12-04T04:30:03;82.37;;;75.03;;
20067;SDS011;10194;50.824;7.134;2023-12-04T04:32:30;84.67;;;77.07;;
20067;SDS011;10194;50.824;7.134;2023-12-04T04:34:55;82.80;;;75.50;;
20067;SDS011;10194;50.824;7.134;2023-12-04T04:37:21;82.20;;;74.93;;
20067;SDS011;10194;50.824;7.134;2023-12-04T04:39:47;82.63;;;75.37;;
20067;SDS011;10194;50.824;7.134;2023-12-04T04:42:13;83.37;;;76.10;;
20067;SDS011;10194;50.824;7.134;2023-12-04T04:44:39;85.73;;;78.20;;
20067;SDS011;10194;50.824;7.134;2023-12-04T04:47:05;87.57;;;79.97;;
20067;SDS011;10194;50.824;7.134;2023-12-04T04:49:31;84.10;;;76.70;;
20067;SDS011;10194;50.824;7.134;2023-12-04T04:51:57;83.97;;;76.47;;
20067;SDS011;10194;50.824;7.134;2023-12-04T04:54:23;85.40;;;77.93;;
20067;SDS011;10194;50.824;7.134;2023-12-04T04:56:49;82.20;;;74.97;;
20067;SDS011;10194;50.824;7.134;2023-12-04T04:59:14;84.07;;;76.70;;
20067;SDS011;10194;50.824;7.134;2023-12-04T05:01:40;84.23;;;76.93;;
20067;SDS011;10194;50.824;7.134;2023-12-04T05:04:06;85.03;;;77.53;;
20067;SDS011;10194;50.824;7.134;2023-12-04T05:06:31;85.27;;;77.97;;
20067;SDS011;10194;50.824;7.134;2023-12-04T05:08:57;86.90;;;79.43;;
20067;SDS011;10194;50.824;7.134;2023-12-04T05:11:24;84.83;;;77.43;;
20067;SDS011;10194;50.824;7.134;2023-12-04T05:13:50;85.40;;;77.97;;
20067;SDS011;10194;50.824;7.134;2023-12-04T05:16:16;83.97;;;76.67;;
20067;SDS011;10194;50.824;7.134;2023-12-04T05:18:42;84.70;;;77.37;;
20067;SDS011;10194;50.824;7.134;2023-12-04T05:21:08;83.80;;;76.50;;
20067;SDS011;10194;50.824;7.134;2023-12-04T05:23:34;89.37;;;81.37;;
20067;SDS011;10194;50.824;7.134;2023-12-04T05:26:03;83.57;;;76.43;;
20067;SDS011;10194;50.824;7.134;2023-12-04T05:28:31;86.20;;;78.87;;
20067;SDS011;10194;50.824;7.134;2023-12-04T05:30:57;87.43;;;79.70;;
20067;SDS011;10194;50.824;7.134;2023-12-04T05:33:22;85.00;;;77.57;;
20067;SDS011;10194;50.824;7.134;2023-12-04T05:35:48;84.17;;;76.87;;
20067;SDS011;10194;50.824;7.134;2023-12-04T05:38:16;85.03;;;77.70;;
20067;SDS011;10194;50.824;7.134;2023-12-04T05:40:42;84.47;;;77.13;;
20067;SDS011;10194;50.824;7.134;2023-12-04T05:43:07;85.57;;;78.20;;
20067;SDS011;10194;50.824;7.134;2023-12-04T05:45:33;86.27;;;78.87;;
20067;SDS011;10194;50.824;7.134;2023-12-04T05:47:59;84.47;;;77.23;;
20067;SDS011;10194;50.824;7.134;2023-12-04T05:50:24;85.60;;;78.20;;
20067;SDS011;10194;50.824;7.134;2023-12-04T05:52:50;86.03;;;78.70;;
20067;SDS011;10194;50.824;7.134;2023-12-04T05:55:16;86.90;;;79.50;;
20067;SDS011;10194;50.824;7.134;2023-12-04T05:57:43;85.87;;;78.50;;
20067;SDS011;10194;50.824;7.134;2023-12-04T06:00:09;82.63;;;75.43;;
20067;SDS011;10194;50.824;7.134;2023-12-04T06:02:41;88.50;;;80.83;;
20067;SDS011;10194;50.824;7.134;2023-12-04T06:05:08;83.57;;;76.30;;
20067;SDS011;10194;50.824;7.134;2023-12-04T06:07:35;83.87;;;76.60;;
20067;SDS011;10194;50.824;7.134;2023-12-04T06:10:01;84.27;;;76.97;;
20067;SDS011;10194;50.824;7.134;2023-12-04T06:12:31;86.03;;;78.80;;
20067;SDS011;10194;50.824;7.134;2023-12-04T06:14:57;83.53;;;76.37;;
20067;SDS011;10194;50.824;7.134;2023-12-04T06:17:23;85.20;;;77.90;;
20067;SDS011;10194;50.824;7.134;2023-12-04T06:19:50;85.13;;;77.73;;
20067;SDS011;10194;50.824;7.134;2023-12-04T06:22:16;84.53;;;77.27;;
20067;SDS011;10194;50.824;7.134;2023-12-04T06:24:45;87.37;;;79.77;;
20067;SDS011;10194;50.824;7.134;2023-12-04T06:27:15;84.10;;;76.90;;
20067;SDS011;10194;50.824;7.134;2023-12-04T06:29:46;86.30;;;78.90;;
20067;SDS011;10194;50.824;7.134;2023-12-04T06:32:14;84.47;;;77.23;;
20067;SDS011;10194;50.824;7.134;2023-12-04T06:34:40;83.33;;;76.23;;
20067;SDS011;10194;50.824;7.134;2023-12-04T06:37:09;82.43;;;75.23;;
20067;SDS011;10194;50.824;7.134;2023-12-04T06:39:37;84.20;;;77.07;;
20067;SDS011;10194;50.824;7.134;2023-12-04T06:42:07;84.77;;;77.53;;
20067;SDS011;10194;50.824;7.134;2023-12-04T06:44:35;83.83;;;76.70;;
20067;SDS011;10194;50.824;7.134;2023-12-04T06:47:01;84.57;;;77.40;;
20067;SDS011;10194;50.824;7.134;2023-12-04T06:49:29;84.33;;;77.17;;
20067;SDS011;10194;50.824;7.134;2023-12-04T06:51:58;84.97;;;77.90;;
20067;SDS011;10194;50.824;7.134;2023-12-04T06:54:25;84.57;;;77.43;;
20067;SDS011;10194;50.824;7.134;2023-12-04T06:56:51;83.80;;;76.67;;
20067;SDS011;10194;50.824;7.134;2023-12-04T06:59:18;83.50;;;76.47;;
20067;SDS011;10194;50.824;7.134;2023-12-04T07:01:44;84.40;;;77.30;;
20067;SDS011;10194;50.824;7.134;2023-12-04T07:04:10;83.60;;;76.50;;
20067;SDS011;10194;50.824;7.134;2023-12-04T07:06:36;83.73;;;76.70;;
20067;SDS011;10194;50.824;7.134;2023-12-04T07:09:02;82.70;;;75.67;;
20067;SDS011;10194;50.824;7.134;2023-12-04T07:11:28;84.37;;;77.17;;
20067;SDS011;10194;50.824;7.134;2023-12-04T07:13:55;83.73;;;76.63;;
20067;SDS011;10194;50.824;7.134;2023-12-04T07:16:20;83.53;;;76.37;;
20067;SDS011;10194;50.824;7.134;2023-12-04T07:18:46;85.10;;;77.90;;
20067;SDS011;10194;50.824;7.134;2023-12-04T07:21:12;81.90;;;74.97;;
20067;SDS011;10194;50.824;7.134;2023-12-04T07:23:37;84.73;;;77.43;;
20067;SDS011;10194;50.824;7.134;2023-12-04T07:26:03;81.67;;;74.67;;
20067;SDS011;10194;50.824;7.134;2023-12-04T07:28:31;82.80;;;75.77;;
20067;SDS011;10194;50.824;7.134;2023-12-04T07:30:58;82.83;;;75.73;;
20067;SDS011;10194;50.824;7.134;2023-12-04T07:33:26;84.90;;;77.53;;
20067;SDS011;10194;50.824;7.134;2023-12-04T07:35:52;86.37;;;79.00;;
20067;SDS011;10194;50.824;7.134;2023-12-04T07:38:18;83.53;;;76.33;;
20067;SDS011;10194;50.824;7.134;2023-12-04T07:40:47;82.60;;;75.60;;
20067;SDS011;10194;50.824;7.134;2023-12-04T07:43:13;85.07;;;77.87;;
20067;SDS011;10194;50.824;7.134;2023-12-04T07:45:42;87.97;;;80.47;;
20067;SDS011;10194;50.824;7.134;2023-12-04T07:48:08;81.67;;;74.67;;
20067;SDS011;10194;50.824;7.134;2023-12-04T07:50:34;85.17;;;77.97;;
20067;SDS011;10194;50.824;7.134;2023-12-04T07:53:00;85.03;;;77.83;;
20067;SDS011;10194;50.824;7.134;2023-12-04T07:55:26;84.77;;;77.67;;
20067;SDS011;10194;50.824;7.134;2023-12-04T07:57:52;86.77;;;79.47;;
20067;SDS011;10194;50.824;7.134;2023-12-04T08:00:18;85.73;;;78.53;;
20067;SDS011;10194;50.824;7.134;2023-12-04T08:02:44;84.50;;;77.37;;
20067;SDS011;10194;50.824;7.134;2023-12-04T08:05:11;85.80;;;78.50;;
20067;SDS011;10194;50.824;7.134;2023-12-04T08:07:37;83.53;;;76.53;;
20067;SDS011;10194;50.824;7.134;2023-12-04T08:10:03;85.67;;;78.43;;
20067;SDS011;10194;50.824;7.134;2023-12-04T08:12:31;87.97;;;80.57;;
20067;SDS011;10194;50.824;7.134;2023-12-04T08:14:58;84.67;;;77.57;;
20067;SDS011;10194;50.824;7.134;2023-12-04T08:17:24;85.13;;;77.93;;
20067;SDS011;10194;50.824;7.134;2023-12-04T08:19:50;84.97;;;77.87;;
20067;SDS011;10194;50.824;7.134;2023-12-04T08:22:16;86.57;;;79.23;;
20067;SDS011;10194;50.824;7.134;2023-12-04T08:24:42;86.33;;;79.00;;
20067;SDS011;10194;50.824;7.134;2023-12-04T08:27:07;84.50;;;77.40;;
20067;SDS011;10194;50.824;7.134;2023-12-04T08:29:33;86.43;;;79.20;;
20067;SDS011;10194;50.824;7.134;2023-12-04T08:31:59;87.77;;;80.43;;
20067;SDS011;10194;50.824;7.134;2023-12-04T08:34:25;84.03;;;77.00;;
20067;SDS011;10194;50.824;7.134;2023-12-04T08:36:51;86.60;;;79.37;;
20067;SDS011;10194;50.824;7.134;2023-12-04T08:39:17;87.33;;;80.00;;
20067;SDS011;10194;50.824;7.134;2023-12-04T08:41:46;85.53;;;78.23;;
20067;SDS011;10194;50.824;7.134;2023-12-04T08:44:14;85.37;;;78.13;;
20067;SDS011;10194;50.824;7.134;2023-12-04T08:46:41;87.47;;;80.17;;
20067;SDS011;10194;50.824;7.134;2023-12-04T08:49:09;85.30;;;78.10;;
20067;SDS011;10194;50.824;7.134;2023-12-04T08:51:35;85.30;;;78.07;;
20067;SDS011;10194;50.824;7.134;2023-12-04T08:54:01;84.53;;;77.40;;
20067;SDS011;10194;50.824;7.134;2023-12-04T08:56:27;85.43;;;78.10;;
20067;SDS011;10194;50.824;7.134;2023-12-04T08:58:54;86.10;;;78.90;;
20067;SDS011;10194;50.824;7.134;2023-12-04T09:01:20;86.63;;;79.30;;
20067;SDS011;10194;50.824;7.134;2023-12-04T09:03:46;86.20;;;78.90;;
20067;SDS011;10194;50.824;7.134;2023-12-04T09:06:12;83.73;;;76.60;;
20067;SDS011;10194;50.824;7.134;2023-12-04T09:08:37;86.43;;;79.23;;
20067;SDS011;10194;50.824;7.134;2023-12-04T09:11:03;85.83;;;78.37;;
20067;SDS011;10194;50.824;7.134;2023-12-04T09:13:29;88.60;;;81.00;;
20067;SDS011;10194;50.824;7.134;2023-12-04T09:15:56;83.80;;;76.70;;
20067;SDS011;10194;50.824;7.134;2023-12-04T09:18:22;87.23;;;79.67;;
20067;SDS011;10194;50.824;7.134;2023-12-04T09:20:48;85.47;;;78.10;;
20067;SDS011;10194;50.824;7.134;2023-12-04T09:23:13;86.13;;;78.80;;
20067;SDS011;10194;50.824;7.134;2023-12-04T09:25:39;85.13;;;77.83;;
20067;SDS011;10194;50.824;7.134;2023-12-04T09:28:05;86.23;;;78.90;;
20067;SDS011;10194;50.824;7.134;2023-12-04T09:30:31;88.93;;;81.33;;
20067;SDS011;10194;50.824;7.134;2023-12-04T09:32:56;88.63;;;80.97;;
20067;SDS011;10194;50.824;7.134;2023-12-04T09:35:22;85.37;;;78.00;;
20067;SDS011;10194;50.824;7.134;2023-12-04T09:37:48;86.60;;;79.03;;
20067;SDS011;10194;50.824;7.134;2023-12-04T09:40:15;88.73;;;80.93;;
20067;SDS011;10194;50.824;7.134;2023-12-04T09:42:42;88.87;;;81.20;;
20067;SDS011;10194;50.824;7.134;2023-12-04T09:45:08;85.70;;;78.27;;
20067;SDS011;10194;50.824;7.134;2023-12-04T09:47:35;86.53;;;79.03;;
20067;SDS011;10194;50.824;7.134;2023-12-04T09:50:01;84.60;;;77.23;;
20067;SDS011;10194;50.824;7.134;2023-12-04T09:52:27;87.20;;;79.67;;
20067;SDS011;10194;50.824;7.134;2023-12-04T09:54:53;86.93;;;79.37;;
20067;SDS011;10194;50.824;7.134;2023-12-04T09:57:19;89.23;;;81.47;;
20067;SDS011;10194;50.824;7.134;2023-12-04T09:59:49;88.07;;;80.37;;
20067;SDS011;10194;50.824;7.134;2023-12-04T10:02:16;88.40;;;80.70;;
20067;SDS011;10194;50.824;7.134;2023-12-04T10:04:42;87.37;;;79.67;;
20067;SDS011;10194;50.824;7.134;2023-12-04T10:07:08;85.77;;;78.13;;
20067;SDS011;10194;50.824;7.134;2023-12-04T10:09:34;87.87;;;80.23;;
20067;SDS011;10194;50.824;7.134;2023-12-04T10:12:00;90.87;;;82.90;;
20067;SDS011;10194;50.824;7.134;2023-12-04T10:14:25;89.40;;;81.43;;
20067;SDS011;10194;50.824;7.134;2023-12-04T10:16:51;85.90;;;78.13;;
20067;SDS011;10194;50.824;7.134;2023-12-04T10:19:20;87.80;;;80.00;;
20067;SDS011;10194;50.824;7.134;2023-12-04T10:21:51;89.53;;;81.63;;
20067;SDS011;10194;50.824;7.134;2023-12-04T10:24:36;86.67;;;78.87;;
20067;SDS011;10194;50.824;7.134;2023-12-04T10:27:04;86.33;;;78.67;;
20067;SDS011;10194;50.824;7.134;2023-12-04T10:29:40;88.87;;;80.87;;
20067;SDS011;10194;50.824;7.134;2023-12-04T10:32:13;88.97;;;81.07;;
20067;SDS011;10194;50.824;7.134;2023-12-04T10:34:46;88.23;;;80.23;;
20067;SDS011;10194;50.824;7.134;2023-12-04T10:37:13;89.10;;;81.17;;
20067;SDS011;10194;50.824;7.134;2023-12-04T10:39:45;85.97;;;78.27;;
20067;SDS011;10194;50.824;7.134;2023-12-04T10:42:15;87.47;;;79.73;;
20067;SDS011;10194;50.824;7.134;2023-12-04T10:44:58;91.83;;;83.63;;
20067;SDS011;10194;50.824;7.134;2023-12-04T10:47:25;91.97;;;83.60;;
20067;SDS011;10194;50.824;7.134;2023-12-04T10:49:54;90.27;;;82.07;;
20067;SDS011;10194;50.824;7.134;2023-12-04T10:52:20;88.43;;;80.37;;
20067;SDS011;10194;50.824;7.134;2023-12-04T10:54:49;88.87;;;80.87;;
20067;SDS011;10194;50.824;7.134;2023-12-04T10:57:25;90.30;;;82.20;;
20067;SDS011;10194;50.824;7.134;2023-12-04T10:59:57;90.00;;;81.90;;
20067;SDS011;10194;50.824;7.134;2023-12-04T11:02:27;89.10;;;80.90;;
20067;SDS011;10194;50.824;7.134;2023-12-04T11:05:01;89.40;;;81.30;;
20067;SDS011;10194;50.824;7.134;2023-12-04T11:07:38;86.90;;;79.00;;
20067;SDS011;10194;50.824;7.134;2023-12-04T11:10:07;86.47;;;78.57;;
20067;SDS011;10194;50.824;7.134;2023-12-04T11:12:35;87.60;;;79.53;;
20067;SDS011;10194;50.824;7.134;2023-12-04T11:15:05;87.47;;;79.57;;
20067;SDS011;10194;50.824;7.134;2023-12-04T11:17:33;89.00;;;80.93;;
20067;SDS011;10194;50.824;7.134;2023-12-04T11:20:05;89.30;;;81.10;;
20067;SDS011;10194;50.824;7.134;2023-12-04T11:22:36;90.03;;;81.90;;
20067;SDS011;10194;50.824;7.134;2023-12-04T11:25:05;87.53;;;79.73;;
20067;SDS011;10194;50.824;7.134;2023-12-04T11:27:32;88.57;;;80.57;;
20067;SDS011;10194;50.824;7.134;2023-12-04T11:29:59;87.80;;;79.80;;
20067;SDS011;10194;50.824;7.134;2023-12-04T11:32:28;87.07;;;79.17;;
20067;SDS011;10194;50.824;7.134;2023-12-04T11:34:55;85.20;;;77.40;;
20067;SDS011;10194;50.824;7.134;2023-12-04T11:37:25;86.40;;;78.50;;
20067;SDS011;10194;50.824;7.134;2023-12-04T11:39:51;86.50;;;78.67;;
20067;SDS011;10194;50.824;7.134;2023-12-04T11:42:24;86.00;;;78.10;;
20067;SDS011;10194;50.824;7.134;2023-12-04T11:44:59;87.17;;;79.27;;
20067;SDS011;10194;50.824;7.134;2023-12-04T11:47:25;87.20;;;79.30;;
20067;SDS011;10194;50.824;7.134;2023-12-04T11:49:53;88.43;;;80.53;;
20067;SDS011;10194;50.824;7.134;2023-12-04T11:52:19;89.20;;;81.13;;
20067;SDS011;10194;50.824;7.134;2023-12-04T11:55:00;88.20;;;80.20;;
20067;SDS011;10194;50.824;7.134;2023-12-04T11:57:34;89.63;;;81.53;;
20067;SDS011;10194;50.824;7.134;2023-12-04T12:05:17;86.90;;;79.00;;
20067;SDS011;10194;50.824;7.134;2023-12-04T12:07:44;87.90;;;79.77;;
20067;SDS011;10194;50.824;7.134;2023-12-04T12:10:10;89.80;;;81.80;;
20067;SDS011;10194;50.824;7.134;2023-12-04T12:12:38;86.60;;;78.73;;
20067;SDS011;10194;50.824;7.134;2023-12-04T12:15:09;88.40;;;80.40;;
20067;SDS011;10194;50.824;7.134;2023-12-04T12:17:39;88.37;;;80.37;;
20067;SDS011;10194;50.824;7.134;2023-12-04T12:20:10;89.43;;;81.37;;
20067;SDS011;10194;50.824;7.134;2023-12-04T12:22:39;87.10;;;79.20;;
20067;SDS011;10194;50.824;7.134;2023-12-04T12:25:07;85.00;;;77.20;;
20067;SDS011;10194;50.824;7.134;2023-12-04T12:27:34;84.70;;;76.90;;
20067;SDS011;10194;50.824;7.134;2023-12-04T12:30:00;87.43;;;79.63;;
20067;SDS011;10194;50.824;7.134;2023-12-04T12:32:26;87.13;;;79.23;;
20067;SDS011;10194;50.824;7.134;2023-12-04T12:34:55;89.17;;;81.10;;
20067;SDS011;10194;50.824;7.134;2023-12-04T12:37:21;87.77;;;79.87;;
20067;SDS011;10194;50.824;7.134;2023-12-04T12:39:47;85.97;;;78.30;;
20067;SDS011;10194;50.824;7.134;2023-12-04T12:42:25;88.57;;;80.73;;
20067;SDS011;10194;50.824;7.134;2023-12-04T12:44:53;89.43;;;81.53;;
20067;SDS011;10194;50.824;7.134;2023-12-04T12:47:21;88.77;;;80.93;;
20067;SDS011;10194;50.824;7.134;2023-12-04T12:49:47;89.50;;;81.40;;
20067;SDS011;10194;50.824;7.134;2023-12-04T12:52:13;91.37;;;83.37;;
20067;SDS011;10194;50.824;7.134;2023-12-04T12:54:40;86.77;;;79.00;;
20067;SDS011;10194;50.824;7.134;2023-12-04T12:57:07;89.13;;;81.27;;
20067;SDS011;10194;50.824;7.134;2023-12-04T12:59:37;90.00;;;82.10;;
20067;SDS011;10194;50.824;7.134;2023-12-04T13:02:06;89.30;;;81.40;;
20067;SDS011;10194;50.824;7.134;2023-12-04T13:07:03;90.23;;;82.13;;
20067;SDS011;10194;50.824;7.134;2023-12-04T13:09:30;87.40;;;79.70;;
20067;SDS011;10194;50.824;7.134;2023-12-04T13:11:57;91.43;;;83.47;;
20067;SDS011;10194;50.824;7.134;2023-12-04T13:14:25;86.97;;;79.27;;
20067;SDS011;10194;50.824;7.134;2023-12-04T13:16:50;88.07;;;80.33;;
20067;SDS011;10194;50.824;7.134;2023-12-04T13:19:16;85.93;;;78.33;;
20067;SDS011;10194;50.824;7.134;2023-12-04T13:21:42;86.13;;;78.43;;
20067;SDS011;10194;50.824;7.134;2023-12-04T13:24:10;85.20;;;77.50;;
20067;SDS011;10194;50.824;7.134;2023-12-04T13:26:37;84.70;;;77.23;;
20067;SDS011;10194;50.824;7.134;2023-12-04T13:29:03;86.43;;;78.87;;
20067;SDS011;10194;50.824;7.134;2023-12-04T13:31:29;86.73;;;79.17;;
20067;SDS011;10194;50.824;7.134;2023-12-04T13:33:55;89.27;;;81.40;;
20067;SDS011;10194;50.824;7.134;2023-12-04T13:36:20;87.90;;;80.27;;
20067;SDS011;10194;50.824;7.134;2023-12-04T13:38:46;87.30;;;79.63;;
20067;SDS011;10194;50.824;7.134;2023-12-04T13:41:12;86.43;;;78.73;;
20067;SDS011;10194;50.824;7.134;2023-12-04T13:44:04;89.10;;;81.20;;
20067;SDS011;10194;50.824;7.134;2023-12-04T13:46:30;86.63;;;78.97;;
20067;SDS011;10194;50.824;7.134;2023-12-04T13:48:56;90.73;;;82.73;;
20067;SDS011;10194;50.824;7.134;2023-12-04T13:51:23;87.87;;;80.10;;
20067;SDS011;10194;50.824;7.134;2023-12-04T13:53:50;87.20;;;79.50;;
20067;SDS011;10194;50.824;7.134;2023-12-04T13:56:21;86.83;;;79.17;;
20067;SDS011;10194;50.824;7.134;2023-12-04T13:59:06;85.93;;;78.50;;
20067;SDS011;10194;50.824;7.134;2023-12-04T14:01:33;87.20;;;79.47;;
20067;SDS011;10194;50.824;7.134;2023-12-04T14:03:59;87.47;;;79.83;;
20067;SDS011;10194;50.824;7.134;2023-12-04T14:06:30;88.67;;;81.00;;
20067;SDS011;10194;50.824;7.134;2023-12-04T14:08:56;85.57;;;78.07;;
20067;SDS011;10194;50.824;7.134;2023-12-04T14:11:23;86.33;;;78.70;;
20067;SDS011;10194;50.824;7.134;2023-12-04T14:13:49;85.47;;;77.93;;
20067;SDS011;10194;50.824;7.134;2023-12-04T14:16:16;87.63;;;79.93;;
20067;SDS011;10194;50.824;7.134;2023-12-04T14:18:42;84.80;;;77.43;;
20067;SDS011;10194;50.824;7.134;2023-12-04T14:21:07;89.23;;;81.47;;
20067;SDS011;10194;50.824;7.134;2023-12-04T14:23:33;90.00;;;82.03;;
20067;SDS011;10194;50.824;7.134;2023-12-04T14:25:59;87.50;;;79.97;;
20067;SDS011;10194;50.824;7.134;2023-12-04T14:28:26;88.37;;;80.70;;